sensor_id;sensor_type;location;lat;lon;timestamp;P1;durP1;ratioP1;P2;durP2;ratioP2
49614;SDS011;35517;45.272;9.984;2022-12-07T00:00:33;98.32;;;12.35;;
49614;SDS011;35517;45.272;9.984;2022-12-07T00:02:59;64.53;;;13.75;;
49614;SDS011;35517;45.272;9.984;2022-12-07T00:05:26;30.27;;;10.10;;
49614;SDS011;35517;45.272;9.984;2022-12-07T00:07:52;118.43;;;13.48;;
49614;SDS011;35517;45.272;9.984;2022-12-07T00:10:19;73.00;;;11.45;;
49614;SDS011;35517;45.272;9.984;2022-12-07T00:12:45;52.95;;;10.10;;
49614;SDS011;35517;45.272;9.984;2022-12-07T00:15:12;41.40;;;10.93;;
49614;SDS011;35517;45.272;9.984;2022-12-07T00:17:38;101.35;;;11.95;;
49614;SDS011;35517;45.272;9.984;2022-12-07T00:20:05;73.85;;;11.65;;
49614;SDS011;35517;45.272;9.984;2022-12-07T00:22:32;93.85;;;12.88;;
49614;SDS011;35517;45.272;9.984;2022-12-07T00:24:58;84.93;;;11.02;;
49614;SDS011;35517;45.272;9.984;2022-12-07T00:27:25;93.78;;;11.02;;
49614;SDS011;35517;45.272;9.984;2022-12-07T00:29:53;55.58;;;11.68;;
49614;SDS011;35517;45.272;9.984;2022-12-07T00:32:19;146.65;;;15.18;;
49614;SDS011;35517;45.272;9.984;2022-12-07T00:34:46;77.18;;;12.07;;
49614;SDS011;35517;45.272;9.984;2022-12-07T00:37:12;78.47;;;11.48;;
49614;SDS011;35517;45.272;9.984;2022-12-07T00:39:39;123.10;;;14.88;;
49614;SDS011;35517;45.272;9.984;2022-12-07T00:42:05;84.07;;;12.18;;
49614;SDS011;35517;45.272;9.984;2022-12-07T00:44:32;71.85;;;12.27;;
49614;SDS011;35517;45.272;9.984;2022-12-07T00:46:59;52.42;;;10.98;;
49614;SDS011;35517;45.272;9.984;2022-12-07T00:49:25;51.58;;;10.20;;
49614;SDS011;35517;45.272;9.984;2022-12-07T00:51:52;116.25;;;12.05;;
49614;SDS011;35517;45.272;9.984;2022-12-07T00:54:18;118.03;;;11.95;;
49614;SDS011;35517;45.272;9.984;2022-12-07T00:56:45;117.18;;;11.60;;
49614;SDS011;35517;45.272;9.984;2022-12-07T00:59:12;189.90;;;14.60;;
49614;SDS011;35517;45.272;9.984;2022-12-07T01:01:40;88.90;;;9.55;;
49614;SDS011;35517;45.272;9.984;2022-12-07T01:04:07;121.80;;;12.10;;
49614;SDS011;35517;45.272;9.984;2022-12-07T01:06:34;120.93;;;10.77;;
49614;SDS011;35517;45.272;9.984;2022-12-07T01:09:02;95.68;;;10.57;;
49614;SDS011;35517;45.272;9.984;2022-12-07T01:11:30;87.20;;;9.68;;
49614;SDS011;35517;45.272;9.984;2022-12-07T01:13:57;128.48;;;11.82;;
49614;SDS011;35517;45.272;9.984;2022-12-07T01:16:25;122.18;;;10.98;;
49614;SDS011;35517;45.272;9.984;2022-12-07T01:18:53;89.47;;;11.73;;
49614;SDS011;35517;45.272;9.984;2022-12-07T01:21:22;141.63;;;11.70;;
49614;SDS011;35517;45.272;9.984;2022-12-07T01:23:49;170.52;;;13.38;;
49614;SDS011;35517;45.272;9.984;2022-12-07T01:26:17;145.50;;;12.73;;
49614;SDS011;35517;45.272;9.984;2022-12-07T01:28:44;82.05;;;11.02;;
49614;SDS011;35517;45.272;9.984;2022-12-07T01:31:12;115.90;;;11.88;;
49614;SDS011;35517;45.272;9.984;2022-12-07T01:33:41;84.05;;;10.23;;
49614;SDS011;35517;45.272;9.984;2022-12-07T01:36:12;86.25;;;9.60;;
49614;SDS011;35517;45.272;9.984;2022-12-07T01:38:39;39.42;;;9.68;;
49614;SDS011;35517;45.272;9.984;2022-12-07T01:41:06;71.00;;;9.85;;
49614;SDS011;35517;45.272;9.984;2022-12-07T01:43:33;36.83;;;8.15;;
49614;SDS011;35517;45.272;9.984;2022-12-07T01:46:00;60.83;;;10.02;;
49614;SDS011;35517;45.272;9.984;2022-12-07T01:48:34;37.10;;;8.65;;
49614;SDS011;35517;45.272;9.984;2022-12-07T01:51:03;70.45;;;9.68;;
49614;SDS011;35517;45.272;9.984;2022-12-07T01:53:30;130.68;;;13.63;;
49614;SDS011;35517;45.272;9.984;2022-12-07T01:55:58;207.82;;;17.17;;
49614;SDS011;35517;45.272;9.984;2022-12-07T01:58:25;192.88;;;14.23;;
49614;SDS011;35517;45.272;9.984;2022-12-07T02:00:52;202.73;;;17.80;;
49614;SDS011;35517;45.272;9.984;2022-12-07T02:03:20;217.52;;;15.68;;
49614;SDS011;35517;45.272;9.984;2022-12-07T02:05:48;167.23;;;13.00;;
49614;SDS011;35517;45.272;9.984;2022-12-07T02:08:15;232.13;;;16.10;;
49614;SDS011;35517;45.272;9.984;2022-12-07T02:10:42;188.95;;;15.07;;
49614;SDS011;35517;45.272;9.984;2022-12-07T02:19:01;183.63;;;14.35;;
49614;SDS011;35517;45.272;9.984;2022-12-07T02:31:37;320.35;;;21.20;;
49614;SDS011;35517;45.272;9.984;2022-12-07T02:34:09;268.52;;;19.00;;
49614;SDS011;35517;45.272;9.984;2022-12-07T02:36:39;177.70;;;15.27;;
49614;SDS011;35517;45.272;9.984;2022-12-07T02:39:11;364.58;;;24.75;;
49614;SDS011;35517;45.272;9.984;2022-12-07T02:41:42;288.17;;;22.63;;
49614;SDS011;35517;45.272;9.984;2022-12-07T02:44:13;250.90;;;19.80;;
49614;SDS011;35517;45.272;9.984;2022-12-07T02:47:02;305.38;;;20.13;;
49614;SDS011;35517;45.272;9.984;2022-12-07T02:49:27;302.75;;;27.17;;
49614;SDS011;35517;45.272;9.984;2022-12-07T02:51:54;250.48;;;20.90;;
49614;SDS011;35517;45.272;9.984;2022-12-07T02:54:21;129.93;;;15.85;;
49614;SDS011;35517;45.272;9.984;2022-12-07T02:56:49;236.32;;;18.67;;
49614;SDS011;35517;45.272;9.984;2022-12-07T03:04:20;188.40;;;15.65;;
49614;SDS011;35517;45.272;9.984;2022-12-07T03:06:53;228.57;;;20.63;;
49614;SDS011;35517;45.272;9.984;2022-12-07T03:09:21;212.68;;;21.52;;
49614;SDS011;35517;45.272;9.984;2022-12-07T03:11:53;184.20;;;16.70;;
49614;SDS011;35517;45.272;9.984;2022-12-07T03:14:26;207.88;;;18.15;;
49614;SDS011;35517;45.272;9.984;2022-12-07T03:16:59;263.05;;;23.75;;
49614;SDS011;35517;45.272;9.984;2022-12-07T03:19:27;188.43;;;17.90;;
49614;SDS011;35517;45.272;9.984;2022-12-07T03:22:05;180.30;;;16.90;;
49614;SDS011;35517;45.272;9.984;2022-12-07T03:27:20;78.38;;;14.52;;
49614;SDS011;35517;45.272;9.984;2022-12-07T03:29:59;64.50;;;12.38;;
49614;SDS011;35517;45.272;9.984;2022-12-07T03:32:37;164.10;;;17.00;;
49614;SDS011;35517;45.272;9.984;2022-12-07T03:35:10;258.17;;;22.63;;
49614;SDS011;35517;45.272;9.984;2022-12-07T03:37:43;234.13;;;20.23;;
49614;SDS011;35517;45.272;9.984;2022-12-07T03:42:37;258.52;;;23.38;;
49614;SDS011;35517;45.272;9.984;2022-12-07T03:45:04;126.55;;;15.68;;
49614;SDS011;35517;45.272;9.984;2022-12-07T03:47:50;90.38;;;11.57;;
49614;SDS011;35517;45.272;9.984;2022-12-07T03:50:35;77.00;;;12.27;;
49614;SDS011;35517;45.272;9.984;2022-12-07T03:55:49;213.10;;;19.13;;
49614;SDS011;35517;45.272;9.984;2022-12-07T03:58:17;250.07;;;20.42;;
49614;SDS011;35517;45.272;9.984;2022-12-07T04:00:45;185.57;;;16.48;;
49614;SDS011;35517;45.272;9.984;2022-12-07T04:03:11;229.70;;;15.85;;
49614;SDS011;35517;45.272;9.984;2022-12-07T04:05:38;146.23;;;17.25;;
49614;SDS011;35517;45.272;9.984;2022-12-07T04:08:05;158.25;;;15.43;;
49614;SDS011;35517;45.272;9.984;2022-12-07T04:10:31;206.75;;;18.58;;
49614;SDS011;35517;45.272;9.984;2022-12-07T04:12:58;189.27;;;19.63;;
49614;SDS011;35517;45.272;9.984;2022-12-07T04:15:25;162.13;;;17.25;;
49614;SDS011;35517;45.272;9.984;2022-12-07T04:17:51;87.43;;;14.68;;
49614;SDS011;35517;45.272;9.984;2022-12-07T04:20:18;164.63;;;17.30;;
49614;SDS011;35517;45.272;9.984;2022-12-07T04:22:44;146.90;;;15.45;;
49614;SDS011;35517;45.272;9.984;2022-12-07T04:25:11;133.15;;;16.13;;
49614;SDS011;35517;45.272;9.984;2022-12-07T04:27:37;85.47;;;14.43;;
49614;SDS011;35517;45.272;9.984;2022-12-07T04:30:04;112.45;;;13.50;;
49614;SDS011;35517;45.272;9.984;2022-12-07T04:32:31;108.78;;;14.32;;
49614;SDS011;35517;45.272;9.984;2022-12-07T04:34:57;82.72;;;14.02;;
49614;SDS011;35517;45.272;9.984;2022-12-07T04:37:24;196.82;;;17.50;;
49614;SDS011;35517;45.272;9.984;2022-12-07T04:39:57;102.15;;;14.07;;
49614;SDS011;35517;45.272;9.984;2022-12-07T04:42:23;86.63;;;12.93;;
49614;SDS011;35517;45.272;9.984;2022-12-07T04:44:50;58.05;;;12.80;;
49614;SDS011;35517;45.272;9.984;2022-12-07T04:47:16;97.38;;;13.23;;
49614;SDS011;35517;45.272;9.984;2022-12-07T04:49:43;70.70;;;14.77;;
49614;SDS011;35517;45.272;9.984;2022-12-07T04:52:09;81.60;;;14.02;;
49614;SDS011;35517;45.272;9.984;2022-12-07T04:54:36;140.30;;;14.27;;
49614;SDS011;35517;45.272;9.984;2022-12-07T04:57:02;201.52;;;18.17;;
49614;SDS011;35517;45.272;9.984;2022-12-07T04:59:29;101.57;;;13.70;;
49614;SDS011;35517;45.272;9.984;2022-12-07T05:01:56;110.40;;;14.50;;
49614;SDS011;35517;45.272;9.984;2022-12-07T05:04:22;109.20;;;13.27;;
49614;SDS011;35517;45.272;9.984;2022-12-07T05:06:49;136.73;;;14.93;;
49614;SDS011;35517;45.272;9.984;2022-12-07T05:09:15;114.78;;;13.73;;
49614;SDS011;35517;45.272;9.984;2022-12-07T05:11:42;104.60;;;13.88;;
49614;SDS011;35517;45.272;9.984;2022-12-07T05:16:35;93.50;;;14.15;;
49614;SDS011;35517;45.272;9.984;2022-12-07T05:19:01;98.63;;;13.85;;
49614;SDS011;35517;45.272;9.984;2022-12-07T05:21:28;165.98;;;17.50;;
49614;SDS011;35517;45.272;9.984;2022-12-07T05:23:55;103.35;;;14.70;;
49614;SDS011;35517;45.272;9.984;2022-12-07T05:26:21;46.13;;;12.40;;
49614;SDS011;35517;45.272;9.984;2022-12-07T05:28:52;161.70;;;15.90;;
49614;SDS011;35517;45.272;9.984;2022-12-07T05:31:18;107.35;;;14.50;;
49614;SDS011;35517;45.272;9.984;2022-12-07T05:33:45;116.82;;;14.05;;
49614;SDS011;35517;45.272;9.984;2022-12-07T05:36:11;117.10;;;15.50;;
49614;SDS011;35517;45.272;9.984;2022-12-07T05:38:38;104.72;;;14.43;;
49614;SDS011;35517;45.272;9.984;2022-12-07T05:41:05;85.88;;;12.05;;
49614;SDS011;35517;45.272;9.984;2022-12-07T05:43:32;137.50;;;14.90;;
49614;SDS011;35517;45.272;9.984;2022-12-07T05:45:59;143.93;;;16.60;;
49614;SDS011;35517;45.272;9.984;2022-12-07T05:48:26;59.58;;;14.10;;
49614;SDS011;35517;45.272;9.984;2022-12-07T05:50:52;84.53;;;15.25;;
49614;SDS011;35517;45.272;9.984;2022-12-07T05:53:19;88.63;;;14.98;;
49614;SDS011;35517;45.272;9.984;2022-12-07T05:55:45;104.75;;;15.00;;
49614;SDS011;35517;45.272;9.984;2022-12-07T05:58:12;134.10;;;17.02;;
49614;SDS011;35517;45.272;9.984;2022-12-07T06:00:57;70.78;;;14.70;;
49614;SDS011;35517;45.272;9.984;2022-12-07T06:03:24;88.82;;;15.75;;
49614;SDS011;35517;45.272;9.984;2022-12-07T06:05:51;52.55;;;12.82;;
49614;SDS011;35517;45.272;9.984;2022-12-07T06:08:18;80.45;;;13.60;;
49614;SDS011;35517;45.272;9.984;2022-12-07T06:10:46;82.95;;;14.77;;
49614;SDS011;35517;45.272;9.984;2022-12-07T06:13:32;75.03;;;12.73;;
49614;SDS011;35517;45.272;9.984;2022-12-07T06:15:59;61.40;;;11.80;;
49614;SDS011;35517;45.272;9.984;2022-12-07T06:18:25;64.25;;;12.73;;
49614;SDS011;35517;45.272;9.984;2022-12-07T06:20:52;36.30;;;12.45;;
49614;SDS011;35517;45.272;9.984;2022-12-07T06:23:18;59.03;;;12.05;;
49614;SDS011;35517;45.272;9.984;2022-12-07T06:25:45;52.25;;;11.20;;
49614;SDS011;35517;45.272;9.984;2022-12-07T06:28:12;60.53;;;11.40;;
49614;SDS011;35517;45.272;9.984;2022-12-07T06:30:38;39.58;;;10.73;;
49614;SDS011;35517;45.272;9.984;2022-12-07T06:33:05;48.70;;;11.05;;
49614;SDS011;35517;45.272;9.984;2022-12-07T06:35:38;48.97;;;11.98;;
49614;SDS011;35517;45.272;9.984;2022-12-07T06:38:05;66.93;;;12.65;;
49614;SDS011;35517;45.272;9.984;2022-12-07T06:40:31;53.15;;;12.15;;
49614;SDS011;35517;45.272;9.984;2022-12-07T06:42:58;53.40;;;11.57;;
49614;SDS011;35517;45.272;9.984;2022-12-07T06:45:26;69.97;;;13.30;;
49614;SDS011;35517;45.272;9.984;2022-12-07T06:47:52;69.90;;;13.02;;
49614;SDS011;35517;45.272;9.984;2022-12-07T06:50:19;43.10;;;11.50;;
49614;SDS011;35517;45.272;9.984;2022-12-07T06:52:45;41.83;;;12.85;;
49614;SDS011;35517;45.272;9.984;2022-12-07T06:55:12;44.30;;;13.70;;
49614;SDS011;35517;45.272;9.984;2022-12-07T06:57:38;46.70;;;12.57;;
49614;SDS011;35517;45.272;9.984;2022-12-07T07:00:05;59.28;;;12.93;;
49614;SDS011;35517;45.272;9.984;2022-12-07T07:02:32;51.35;;;11.15;;
49614;SDS011;35517;45.272;9.984;2022-12-07T07:04:58;71.78;;;13.43;;
49614;SDS011;35517;45.272;9.984;2022-12-07T07:07:25;36.67;;;11.60;;
49614;SDS011;35517;45.272;9.984;2022-12-07T07:09:51;31.63;;;12.60;;
49614;SDS011;35517;45.272;9.984;2022-12-07T07:12:18;45.22;;;10.88;;
49614;SDS011;35517;45.272;9.984;2022-12-07T07:14:45;64.97;;;12.38;;
49614;SDS011;35517;45.272;9.984;2022-12-07T07:17:11;91.88;;;14.20;;
49614;SDS011;35517;45.272;9.984;2022-12-07T07:19:38;59.35;;;12.20;;
49614;SDS011;35517;45.272;9.984;2022-12-07T07:22:04;49.67;;;12.48;;
49614;SDS011;35517;45.272;9.984;2022-12-07T07:24:31;58.53;;;12.48;;
49614;SDS011;35517;45.272;9.984;2022-12-07T07:26:57;49.67;;;12.38;;
49614;SDS011;35517;45.272;9.984;2022-12-07T07:29:24;81.25;;;13.43;;
49614;SDS011;35517;45.272;9.984;2022-12-07T07:31:50;40.78;;;11.70;;
49614;SDS011;35517;45.272;9.984;2022-12-07T07:34:17;50.33;;;13.40;;
49614;SDS011;35517;45.272;9.984;2022-12-07T07:36:44;30.67;;;12.85;;
49614;SDS011;35517;45.272;9.984;2022-12-07T07:39:11;57.25;;;13.38;;
49614;SDS011;35517;45.272;9.984;2022-12-07T07:41:38;46.70;;;14.57;;
49614;SDS011;35517;45.272;9.984;2022-12-07T07:44:11;58.20;;;13.60;;
49614;SDS011;35517;45.272;9.984;2022-12-07T07:46:38;31.80;;;12.70;;
49614;SDS011;35517;45.272;9.984;2022-12-07T07:49:04;34.63;;;11.50;;
49614;SDS011;35517;45.272;9.984;2022-12-07T07:51:31;30.67;;;12.52;;
49614;SDS011;35517;45.272;9.984;2022-12-07T07:53:57;29.17;;;12.40;;
49614;SDS011;35517;45.272;9.984;2022-12-07T07:56:24;33.20;;;11.82;;
49614;SDS011;35517;45.272;9.984;2022-12-07T07:58:53;32.85;;;12.20;;
49614;SDS011;35517;45.272;9.984;2022-12-07T08:01:20;29.60;;;12.85;;
49614;SDS011;35517;45.272;9.984;2022-12-07T08:03:47;47.40;;;11.65;;
49614;SDS011;35517;45.272;9.984;2022-12-07T08:06:14;56.55;;;13.07;;
49614;SDS011;35517;45.272;9.984;2022-12-07T08:08:41;57.60;;;12.77;;
49614;SDS011;35517;45.272;9.984;2022-12-07T08:11:08;63.72;;;12.25;;
49614;SDS011;35517;45.272;9.984;2022-12-07T08:13:35;52.38;;;12.88;;
49614;SDS011;35517;45.272;9.984;2022-12-07T08:16:06;38.95;;;11.02;;
49614;SDS011;35517;45.272;9.984;2022-12-07T08:18:36;42.35;;;12.60;;
49614;SDS011;35517;45.272;9.984;2022-12-07T08:21:03;39.33;;;11.75;;
49614;SDS011;35517;45.272;9.984;2022-12-07T08:23:30;60.03;;;13.20;;
49614;SDS011;35517;45.272;9.984;2022-12-07T08:26:03;43.05;;;13.45;;
49614;SDS011;35517;45.272;9.984;2022-12-07T08:28:30;49.95;;;12.45;;
49614;SDS011;35517;45.272;9.984;2022-12-07T08:31:00;38.85;;;11.18;;
49614;SDS011;35517;45.272;9.984;2022-12-07T08:33:27;44.45;;;11.70;;
49614;SDS011;35517;45.272;9.984;2022-12-07T08:35:54;55.42;;;12.07;;
49614;SDS011;35517;45.272;9.984;2022-12-07T08:38:20;29.75;;;11.10;;
49614;SDS011;35517;45.272;9.984;2022-12-07T08:40:54;39.10;;;10.23;;
49614;SDS011;35517;45.272;9.984;2022-12-07T08:43:21;49.15;;;12.50;;
49614;SDS011;35517;45.272;9.984;2022-12-07T08:45:48;34.78;;;11.38;;
49614;SDS011;35517;45.272;9.984;2022-12-07T08:48:16;22.17;;;10.82;;
49614;SDS011;35517;45.272;9.984;2022-12-07T08:50:47;58.80;;;12.07;;
49614;SDS011;35517;45.272;9.984;2022-12-07T08:53:14;34.25;;;12.20;;
49614;SDS011;35517;45.272;9.984;2022-12-07T08:55:40;24.95;;;11.50;;
49614;SDS011;35517;45.272;9.984;2022-12-07T08:58:07;34.25;;;12.07;;
49614;SDS011;35517;45.272;9.984;2022-12-07T09:00:34;41.55;;;12.40;;
49614;SDS011;35517;45.272;9.984;2022-12-07T09:03:00;28.20;;;11.32;;
49614;SDS011;35517;45.272;9.984;2022-12-07T09:05:27;55.10;;;11.27;;
49614;SDS011;35517;45.272;9.984;2022-12-07T09:07:54;37.05;;;11.77;;
49614;SDS011;35517;45.272;9.984;2022-12-07T09:10:21;42.08;;;11.82;;
49614;SDS011;35517;45.272;9.984;2022-12-07T09:12:49;44.30;;;13.05;;
49614;SDS011;35517;45.272;9.984;2022-12-07T09:15:15;85.50;;;12.68;;
49614;SDS011;35517;45.272;9.984;2022-12-07T09:17:42;26.75;;;11.18;;
49614;SDS011;35517;45.272;9.984;2022-12-07T09:20:08;45.33;;;13.77;;
49614;SDS011;35517;45.272;9.984;2022-12-07T09:22:35;30.35;;;12.77;;
49614;SDS011;35517;45.272;9.984;2022-12-07T09:25:03;32.08;;;13.93;;
49614;SDS011;35517;45.272;9.984;2022-12-07T09:27:30;46.10;;;14.32;;
49614;SDS011;35517;45.272;9.984;2022-12-07T09:33:00;41.83;;;15.45;;
49614;SDS011;35517;45.272;9.984;2022-12-07T09:35:27;63.33;;;15.15;;
49614;SDS011;35517;45.272;9.984;2022-12-07T09:37:54;58.75;;;14.77;;
49614;SDS011;35517;45.272;9.984;2022-12-07T09:40:21;51.03;;;15.13;;
49614;SDS011;35517;45.272;9.984;2022-12-07T09:42:49;42.45;;;17.67;;
49614;SDS011;35517;45.272;9.984;2022-12-07T09:45:38;34.70;;;15.32;;
49614;SDS011;35517;45.272;9.984;2022-12-07T09:48:04;57.97;;;18.45;;
49614;SDS011;35517;45.272;9.984;2022-12-07T09:50:31;49.78;;;15.48;;
49614;SDS011;35517;45.272;9.984;2022-12-07T09:53:06;37.17;;;16.45;;
49614;SDS011;35517;45.272;9.984;2022-12-07T09:55:33;33.28;;;16.63;;
49614;SDS011;35517;45.272;9.984;2022-12-07T09:58:02;43.88;;;17.23;;
49614;SDS011;35517;45.272;9.984;2022-12-07T10:00:28;34.92;;;16.13;;
49614;SDS011;35517;45.272;9.984;2022-12-07T10:02:56;36.90;;;15.43;;
49614;SDS011;35517;45.272;9.984;2022-12-07T10:06:06;32.97;;;14.88;;
49614;SDS011;35517;45.272;9.984;2022-12-07T10:08:14;39.70;;;14.40;;
49614;SDS011;35517;45.272;9.984;2022-12-07T10:10:44;27.23;;;15.60;;
49614;SDS011;35517;45.272;9.984;2022-12-07T10:13:12;33.15;;;16.50;;
49614;SDS011;35517;45.272;9.984;2022-12-07T10:15:47;55.08;;;16.83;;
49614;SDS011;35517;45.272;9.984;2022-12-07T10:23:28;36.22;;;18.50;;
49614;SDS011;35517;45.272;9.984;2022-12-07T10:25:55;47.10;;;18.85;;
49614;SDS011;35517;45.272;9.984;2022-12-07T10:28:21;48.38;;;19.65;;
49614;SDS011;35517;45.272;9.984;2022-12-07T10:30:53;56.95;;;19.83;;
49614;SDS011;35517;45.272;9.984;2022-12-07T10:33:29;40.90;;;18.45;;
49614;SDS011;35517;45.272;9.984;2022-12-07T10:35:56;50.03;;;18.25;;
49614;SDS011;35517;45.272;9.984;2022-12-07T10:38:24;54.63;;;18.60;;
49614;SDS011;35517;45.272;9.984;2022-12-07T10:41:02;35.25;;;18.92;;
49614;SDS011;35517;45.272;9.984;2022-12-07T10:43:29;37.15;;;17.63;;
49614;SDS011;35517;45.272;9.984;2022-12-07T10:46:07;43.53;;;17.73;;
49614;SDS011;35517;45.272;9.984;2022-12-07T11:06:23;38.95;;;16.77;;
49614;SDS011;35517;45.272;9.984;2022-12-07T11:11:28;36.58;;;18.58;;
49614;SDS011;35517;45.272;9.984;2022-12-07T11:16:46;51.88;;;18.55;;
49614;SDS011;35517;45.272;9.984;2022-12-07T11:19:39;37.85;;;17.48;;
49614;SDS011;35517;45.272;9.984;2022-12-07T11:25:01;36.42;;;19.35;;
49614;SDS011;35517;45.272;9.984;2022-12-07T11:27:37;47.08;;;19.35;;
49614;SDS011;35517;45.272;9.984;2022-12-07T11:37:34;39.35;;;21.52;;
49614;SDS011;35517;45.272;9.984;2022-12-07T11:40:05;37.13;;;20.35;;
49614;SDS011;35517;45.272;9.984;2022-12-07T11:42:39;35.80;;;21.10;;
49614;SDS011;35517;45.272;9.984;2022-12-07T11:45:27;45.25;;;21.80;;
49614;SDS011;35517;45.272;9.984;2022-12-07T11:47:56;41.35;;;18.63;;
49614;SDS011;35517;45.272;9.984;2022-12-07T11:50:26;55.35;;;20.63;;
49614;SDS011;35517;45.272;9.984;2022-12-07T11:52:58;46.92;;;20.13;;
49614;SDS011;35517;45.272;9.984;2022-12-07T11:55:38;39.85;;;20.88;;
49614;SDS011;35517;45.272;9.984;2022-12-07T12:00:54;37.70;;;20.80;;
49614;SDS011;35517;45.272;9.984;2022-12-07T12:03:25;39.47;;;21.08;;
49614;SDS011;35517;45.272;9.984;2022-12-07T12:05:56;33.03;;;18.67;;
49614;SDS011;35517;45.272;9.984;2022-12-07T12:08:33;38.35;;;21.80;;
49614;SDS011;35517;45.272;9.984;2022-12-07T12:11:04;38.72;;;21.08;;
49614;SDS011;35517;45.272;9.984;2022-12-07T12:16:35;39.78;;;19.92;;
49614;SDS011;35517;45.272;9.984;2022-12-07T12:19:17;42.97;;;23.98;;
49614;SDS011;35517;45.272;9.984;2022-12-07T12:21:46;35.97;;;21.52;;
49614;SDS011;35517;45.272;9.984;2022-12-07T12:24:15;41.92;;;23.55;;
49614;SDS011;35517;45.272;9.984;2022-12-07T12:26:53;38.50;;;23.20;;
49614;SDS011;35517;45.272;9.984;2022-12-07T12:29:23;40.35;;;22.88;;
49614;SDS011;35517;45.272;9.984;2022-12-07T12:32:36;36.45;;;20.70;;
49614;SDS011;35517;45.272;9.984;2022-12-07T12:45:22;43.40;;;25.10;;
49614;SDS011;35517;45.272;9.984;2022-12-07T12:47:59;42.67;;;24.42;;
49614;SDS011;35517;45.272;9.984;2022-12-07T12:50:27;46.78;;;24.70;;
49614;SDS011;35517;45.272;9.984;2022-12-07T12:53:02;46.70;;;25.65;;
49614;SDS011;35517;45.272;9.984;2022-12-07T13:00:47;59.17;;;26.20;;
49614;SDS011;35517;45.272;9.984;2022-12-07T13:03:27;47.42;;;26.95;;
49614;SDS011;35517;45.272;9.984;2022-12-07T13:08:40;48.33;;;25.73;;
49614;SDS011;35517;45.272;9.984;2022-12-07T13:13:57;43.42;;;25.08;;
49614;SDS011;35517;45.272;9.984;2022-12-07T13:16:40;48.60;;;29.10;;
49614;SDS011;35517;45.272;9.984;2022-12-07T13:21:53;48.30;;;27.00;;
49614;SDS011;35517;45.272;9.984;2022-12-07T13:24:19;51.70;;;27.85;;
49614;SDS011;35517;45.272;9.984;2022-12-07T13:26:46;50.97;;;27.73;;
49614;SDS011;35517;45.272;9.984;2022-12-07T13:29:14;51.20;;;27.05;;
49614;SDS011;35517;45.272;9.984;2022-12-07T13:31:47;52.17;;;28.45;;
49614;SDS011;35517;45.272;9.984;2022-12-07T13:34:34;48.92;;;26.60;;
49614;SDS011;35517;45.272;9.984;2022-12-07T13:37:02;56.50;;;29.67;;
49614;SDS011;35517;45.272;9.984;2022-12-07T13:39:35;54.85;;;29.38;;
49614;SDS011;35517;45.272;9.984;2022-12-07T13:42:15;53.65;;;27.58;;
49614;SDS011;35517;45.272;9.984;2022-12-07T13:44:45;54.15;;;31.38;;
49614;SDS011;35517;45.272;9.984;2022-12-07T13:49:45;50.38;;;29.08;;
49614;SDS011;35517;45.272;9.984;2022-12-07T13:52:28;56.45;;;28.42;;
49614;SDS011;35517;45.272;9.984;2022-12-07T13:55:11;55.25;;;28.23;;
49614;SDS011;35517;45.272;9.984;2022-12-07T13:57:39;58.28;;;27.20;;
49614;SDS011;35517;45.272;9.984;2022-12-07T14:00:16;54.50;;;29.85;;
49614;SDS011;35517;45.272;9.984;2022-12-07T14:05:26;52.60;;;28.90;;
49614;SDS011;35517;45.272;9.984;2022-12-07T14:10:24;63.60;;;30.20;;
49614;SDS011;35517;45.272;9.984;2022-12-07T14:12:51;59.72;;;29.83;;
49614;SDS011;35517;45.272;9.984;2022-12-07T14:15:22;52.17;;;26.35;;
49614;SDS011;35517;45.272;9.984;2022-12-07T14:17:49;56.28;;;29.05;;
49614;SDS011;35517;45.272;9.984;2022-12-07T14:22:59;56.03;;;28.88;;
49614;SDS011;35517;45.272;9.984;2022-12-07T14:25:47;59.80;;;29.08;;
49614;SDS011;35517;45.272;9.984;2022-12-07T14:28:34;59.72;;;28.92;;
49614;SDS011;35517;45.272;9.984;2022-12-07T14:31:01;59.70;;;29.27;;
49614;SDS011;35517;45.272;9.984;2022-12-07T14:33:28;66.13;;;30.60;;
49614;SDS011;35517;45.272;9.984;2022-12-07T14:35:55;67.95;;;34.53;;
49614;SDS011;35517;45.272;9.984;2022-12-07T14:38:24;64.88;;;30.38;;
49614;SDS011;35517;45.272;9.984;2022-12-07T14:40:52;52.72;;;29.50;;
49614;SDS011;35517;45.272;9.984;2022-12-07T14:43:19;57.08;;;27.50;;
49614;SDS011;35517;45.272;9.984;2022-12-07T14:45:46;59.03;;;30.42;;
49614;SDS011;35517;45.272;9.984;2022-12-07T14:48:13;57.75;;;30.65;;
49614;SDS011;35517;45.272;9.984;2022-12-07T14:50:42;74.75;;;35.30;;
49614;SDS011;35517;45.272;9.984;2022-12-07T14:53:12;118.60;;;48.78;;
49614;SDS011;35517;45.272;9.984;2022-12-07T14:55:39;72.07;;;34.15;;
49614;SDS011;35517;45.272;9.984;2022-12-07T14:58:07;94.05;;;44.90;;
49614;SDS011;35517;45.272;9.984;2022-12-07T15:00:38;102.07;;;49.92;;
49614;SDS011;35517;45.272;9.984;2022-12-07T15:03:04;74.55;;;39.50;;
49614;SDS011;35517;45.272;9.984;2022-12-07T15:05:32;68.63;;;37.75;;
49614;SDS011;35517;45.272;9.984;2022-12-07T15:07:59;72.45;;;39.30;;
49614;SDS011;35517;45.272;9.984;2022-12-07T15:10:27;66.78;;;32.28;;
49614;SDS011;35517;45.272;9.984;2022-12-07T15:12:55;62.22;;;30.40;;
49614;SDS011;35517;45.272;9.984;2022-12-07T15:15:45;62.03;;;31.13;;
49614;SDS011;35517;45.272;9.984;2022-12-07T15:18:11;58.35;;;31.15;;
49614;SDS011;35517;45.272;9.984;2022-12-07T15:20:38;60.63;;;29.73;;
49614;SDS011;35517;45.272;9.984;2022-12-07T15:23:05;58.38;;;31.33;;
49614;SDS011;35517;45.272;9.984;2022-12-07T15:25:31;61.67;;;31.85;;
49614;SDS011;35517;45.272;9.984;2022-12-07T15:27:58;55.75;;;28.50;;
49614;SDS011;35517;45.272;9.984;2022-12-07T15:30:25;60.25;;;29.83;;
49614;SDS011;35517;45.272;9.984;2022-12-07T15:32:52;57.55;;;28.92;;
49614;SDS011;35517;45.272;9.984;2022-12-07T15:35:19;63.92;;;31.42;;
49614;SDS011;35517;45.272;9.984;2022-12-07T15:37:46;63.95;;;29.48;;
49614;SDS011;35517;45.272;9.984;2022-12-07T15:40:13;62.78;;;30.33;;
49614;SDS011;35517;45.272;9.984;2022-12-07T15:42:40;60.95;;;29.63;;
49614;SDS011;35517;45.272;9.984;2022-12-07T15:45:07;69.82;;;32.42;;
49614;SDS011;35517;45.272;9.984;2022-12-07T15:47:35;58.85;;;30.35;;
49614;SDS011;35517;45.272;9.984;2022-12-07T15:50:03;60.47;;;31.83;;
49614;SDS011;35517;45.272;9.984;2022-12-07T15:52:36;65.15;;;30.27;;
49614;SDS011;35517;45.272;9.984;2022-12-07T15:55:03;61.33;;;31.83;;
49614;SDS011;35517;45.272;9.984;2022-12-07T15:57:30;68.97;;;32.30;;
49614;SDS011;35517;45.272;9.984;2022-12-07T15:59:57;65.95;;;31.67;;
49614;SDS011;35517;45.272;9.984;2022-12-07T16:02:24;63.70;;;28.85;;
49614;SDS011;35517;45.272;9.984;2022-12-07T16:04:51;68.30;;;34.03;;
49614;SDS011;35517;45.272;9.984;2022-12-07T16:07:18;72.97;;;35.47;;
49614;SDS011;35517;45.272;9.984;2022-12-07T16:09:45;100.35;;;52.28;;
49614;SDS011;35517;45.272;9.984;2022-12-07T16:12:12;94.05;;;49.25;;
49614;SDS011;35517;45.272;9.984;2022-12-07T16:14:46;68.13;;;33.83;;
49614;SDS011;35517;45.272;9.984;2022-12-07T16:17:13;95.57;;;47.95;;
49614;SDS011;35517;45.272;9.984;2022-12-07T16:19:40;120.90;;;51.92;;
49614;SDS011;35517;45.272;9.984;2022-12-07T16:22:06;82.45;;;40.17;;